sensor_id;sensor_type;location;lat;lon;timestamp;temperature;humidity
58582;DHT22;44361;51.476;5.700;2024-01-15T00:00:10;1.40;99.90
58582;DHT22;44361;51.476;5.700;2024-01-15T00:02:36;1.30;99.90
58582;DHT22;44361;51.476;5.700;2024-01-15T00:05:02;1.40;99.90
58582;DHT22;44361;51.476;5.700;2024-01-15T00:07:27;1.40;99.90
58582;DHT22;44361;51.476;5.700;2024-01-15T00:09:53;1.40;99.90
58582;DHT22;44361;51.476;5.700;2024-01-15T00:12:18;1.40;99.90
58582;DHT22;44361;51.476;5.700;2024-01-15T00:14:44;1.40;99.90
58582;DHT22;44361;51.476;5.700;2024-01-15T00:17:09;1.30;99.90
58582;DHT22;44361;51.476;5.700;2024-01-15T00:19:35;1.30;99.90
58582;DHT22;44361;51.476;5.700;2024-01-15T00:22:01;1.30;99.90
58582;DHT22;44361;51.476;5.700;2024-01-15T00:24:26;1.30;99.90
58582;DHT22;44361;51.476;5.700;2024-01-15T00:26:52;1.30;99.90
58582;DHT22;44361;51.476;5.700;2024-01-15T00:29:19;1.30;99.90
58582;DHT22;44361;51.476;5.700;2024-01-15T00:31:44;1.30;99.90
58582;DHT22;44361;51.476;5.700;2024-01-15T00:34:10;1.30;99.90
58582;DHT22;44361;51.476;5.700;2024-01-15T00:36:35;1.20;99.90
58582;DHT22;44361;51.476;5.700;2024-01-15T00:39:01;1.20;99.90
58582;DHT22;44361;51.476;5.700;2024-01-15T00:41:27;1.20;99.90
58582;DHT22;44361;51.476;5.700;2024-01-15T00:43:53;1.20;99.90
58582;DHT22;44361;51.476;5.700;2024-01-15T00:46:19;1.20;99.90
58582;DHT22;44361;51.476;5.700;2024-01-15T00:48:44;1.20;99.90
58582;DHT22;44361;51.476;5.700;2024-01-15T00:51:10;1.20;99.90
58582;DHT22;44361;51.476;5.700;2024-01-15T00:53:36;1.30;99.90
58582;DHT22;44361;51.476;5.700;2024-01-15T00:56:02;1.30;99.90
58582;DHT22;44361;51.476;5.700;2024-01-15T00:58:28;1.20;99.90
58582;DHT22;44361;51.476;5.700;2024-01-15T01:00:54;1.30;99.90
58582;DHT22;44361;51.476;5.700;2024-01-15T01:03:19;1.30;99.90
58582;DHT22;44361;51.476;5.700;2024-01-15T01:05:45;1.20;99.90
58582;DHT22;44361;51.476;5.700;2024-01-15T01:08:11;1.20;99.90
58582;DHT22;44361;51.476;5.700;2024-01-15T01:10:37;1.20;99.90
58582;DHT22;44361;51.476;5.700;2024-01-15T01:13:02;1.20;99.90
58582;DHT22;44361;51.476;5.700;2024-01-15T01:15:28;1.10;99.90
58582;DHT22;44361;51.476;5.700;2024-01-15T01:17:54;1.10;99.90
58582;DHT22;44361;51.476;5.700;2024-01-15T01:20:19;1.10;99.90
58582;DHT22;44361;51.476;5.700;2024-01-15T01:22:45;1.10;99.90
58582;DHT22;44361;51.476;5.700;2024-01-15T01:25:10;1.10;99.90
58582;DHT22;44361;51.476;5.700;2024-01-15T01:27:36;1.00;99.90
58582;DHT22;44361;51.476;5.700;2024-01-15T01:30:02;1.00;99.90
58582;DHT22;44361;51.476;5.700;2024-01-15T01:32:28;1.10;99.90
58582;DHT22;44361;51.476;5.700;2024-01-15T01:34:53;1.10;99.90
58582;DHT22;44361;51.476;5.700;2024-01-15T01:37:19;1.10;99.90
58582;DHT22;44361;51.476;5.700;2024-01-15T01:39:45;1.10;99.90
58582;DHT22;44361;51.476;5.700;2024-01-15T01:42:11;1.10;99.90
58582;DHT22;44361;51.476;5.700;2024-01-15T01:44:37;1.10;99.90
58582;DHT22;44361;51.476;5.700;2024-01-15T01:47:03;1.20;99.90
58582;DHT22;44361;51.476;5.700;2024-01-15T01:49:29;1.20;99.90
58582;DHT22;44361;51.476;5.700;2024-01-15T01:51:57;1.10;99.90
58582;DHT22;44361;51.476;5.700;2024-01-15T01:54:24;1.10;99.90
58582;DHT22;44361;51.476;5.700;2024-01-15T01:56:51;1.10;99.90
58582;DHT22;44361;51.476;5.700;2024-01-15T01:59:17;1.10;99.90
58582;DHT22;44361;51.476;5.700;2024-01-15T02:01:43;1.10;99.90
58582;DHT22;44361;51.476;5.700;2024-01-15T02:04:09;1.10;99.90
58582;DHT22;44361;51.476;5.700;2024-01-15T02:06:35;1.10;99.90
58582;DHT22;44361;51.476;5.700;2024-01-15T02:09:01;1.10;99.90
58582;DHT22;44361;51.476;5.700;2024-01-15T02:11:27;1.00;99.90
58582;DHT22;44361;51.476;5.700;2024-01-15T02:13:53;1.00;99.90
58582;DHT22;44361;51.476;5.700;2024-01-15T02:16:18;1.00;99.90
58582;DHT22;44361;51.476;5.700;2024-01-15T02:18:45;1.00;99.90
58582;DHT22;44361;51.476;5.700;2024-01-15T02:21:11;1.00;99.90
58582;DHT22;44361;51.476;5.700;2024-01-15T02:23:37;1.00;99.90
58582;DHT22;44361;51.476;5.700;2024-01-15T02:26:04;1.00;99.90
58582;DHT22;44361;51.476;5.700;2024-01-15T02:28:30;1.00;99.90
58582;DHT22;44361;51.476;5.700;2024-01-15T02:30:56;1.00;99.90
58582;DHT22;44361;51.476;5.700;2024-01-15T02:33:21;0.90;99.90
58582;DHT22;44361;51.476;5.700;2024-01-15T02:35:47;1.00;99.90
58582;DHT22;44361;51.476;5.700;2024-01-15T02:38:15;1.00;99.90
58582;DHT22;44361;51.476;5.700;2024-01-15T02:40:42;1.00;99.90
58582;DHT22;44361;51.476;5.700;2024-01-15T02:43:08;1.00;99.90
58582;DHT22;44361;51.476;5.700;2024-01-15T02:45:34;0.90;99.90
58582;DHT22;44361;51.476;5.700;2024-01-15T02:47:59;0.90;99.90
58582;DHT22;44361;51.476;5.700;2024-01-15T02:50:25;0.90;99.90
58582;DHT22;44361;51.476;5.700;2024-01-15T02:52:50;0.90;99.90
58582;DHT22;44361;51.476;5.700;2024-01-15T02:55:16;0.90;99.90
58582;DHT22;44361;51.476;5.700;2024-01-15T02:57:41;0.80;99.90
58582;DHT22;44361;51.476;5.700;2024-01-15T03:00:07;0.80;99.90
58582;DHT22;44361;51.476;5.700;2024-01-15T03:02:36;0.80;99.90
58582;DHT22;44361;51.476;5.700;2024-01-15T03:05:02;0.80;99.90
58582;DHT22;44361;51.476;5.700;2024-01-15T03:07:28;0.80;99.90
58582;DHT22;44361;51.476;5.700;2024-01-15T03:09:54;0.80;99.90
58582;DHT22;44361;51.476;5.700;2024-01-15T03:12:19;0.80;99.90
58582;DHT22;44361;51.476;5.700;2024-01-15T03:14:45;0.80;99.90
58582;DHT22;44361;51.476;5.700;2024-01-15T03:17:10;0.80;99.90
58582;DHT22;44361;51.476;5.700;2024-01-15T03:19:37;0.80;99.90
58582;DHT22;44361;51.476;5.700;2024-01-15T03:22:03;0.80;99.90
58582;DHT22;44361;51.476;5.700;2024-01-15T03:24:29;0.70;99.90
58582;DHT22;44361;51.476;5.700;2024-01-15T03:26:55;0.70;99.90
58582;DHT22;44361;51.476;5.700;2024-01-15T03:29:20;0.80;99.90
58582;DHT22;44361;51.476;5.700;2024-01-15T03:31:46;0.80;99.90
58582;DHT22;44361;51.476;5.700;2024-01-15T03:34:12;0.80;99.90
58582;DHT22;44361;51.476;5.700;2024-01-15T03:36:37;0.80;99.90
58582;DHT22;44361;51.476;5.700;2024-01-15T03:39:03;0.80;99.90
58582;DHT22;44361;51.476;5.700;2024-01-15T03:41:28;0.80;99.90
58582;DHT22;44361;51.476;5.700;2024-01-15T03:43:54;0.80;99.90
58582;DHT22;44361;51.476;5.700;2024-01-15T03:46:19;0.70;99.90
58582;DHT22;44361;51.476;5.700;2024-01-15T03:48:45;0.70;99.90
58582;DHT22;44361;51.476;5.700;2024-01-15T03:51:10;0.70;99.90
58582;DHT22;44361;51.476;5.700;2024-01-15T03:53:36;0.70;99.90
58582;DHT22;44361;51.476;5.700;2024-01-15T03:56:03;0.70;99.90
58582;DHT22;44361;51.476;5.700;2024-01-15T03:58:29;0.70;99.90
58582;DHT22;44361;51.476;5.700;2024-01-15T04:00:54;0.70;99.90
58582;DHT22;44361;51.476;5.700;2024-01-15T04:03:20;0.80;99.90
58582;DHT22;44361;51.476;5.700;2024-01-15T04:05:45;0.90;99.90
58582;DHT22;44361;51.476;5.700;2024-01-15T04:08:11;0.90;99.90
58582;DHT22;44361;51.476;5.700;2024-01-15T04:10:36;1.00;99.90
58582;DHT22;44361;51.476;5.700;2024-01-15T04:13:02;1.00;99.90
58582;DHT22;44361;51.476;5.700;2024-01-15T04:15:29;1.00;99.90
58582;DHT22;44361;51.476;5.700;2024-01-15T04:17:54;1.10;99.90
58582;DHT22;44361;51.476;5.700;2024-01-15T04:20:20;1.10;99.90
58582;DHT22;44361;51.476;5.700;2024-01-15T04:22:45;1.10;99.90
58582;DHT22;44361;51.476;5.700;2024-01-15T04:25:11;1.10;99.90
58582;DHT22;44361;51.476;5.700;2024-01-15T04:27:36;1.20;99.90
58582;DHT22;44361;51.476;5.700;2024-01-15T04:30:02;1.20;99.90
58582;DHT22;44361;51.476;5.700;2024-01-15T04:32:28;1.20;99.90
58582;DHT22;44361;51.476;5.700;2024-01-15T04:34:53;1.30;99.90
58582;DHT22;44361;51.476;5.700;2024-01-15T04:37:19;1.30;99.90
58582;DHT22;44361;51.476;5.700;2024-01-15T04:39:44;1.40;99.90
58582;DHT22;44361;51.476;5.700;2024-01-15T04:42:11;1.40;99.90
58582;DHT22;44361;51.476;5.700;2024-01-15T04:44:36;1.40;99.90
58582;DHT22;44361;51.476;5.700;2024-01-15T04:47:02;1.50;99.90
58582;DHT22;44361;51.476;5.700;2024-01-15T04:49:28;1.50;99.90
58582;DHT22;44361;51.476;5.700;2024-01-15T04:51:54;1.50;99.90
58582;DHT22;44361;51.476;5.700;2024-01-15T04:54:20;1.50;99.90
58582;DHT22;44361;51.476;5.700;2024-01-15T04:56:46;1.50;99.90
58582;DHT22;44361;51.476;5.700;2024-01-15T04:59:12;1.50;99.90
58582;DHT22;44361;51.476;5.700;2024-01-15T05:01:38;1.50;99.90
58582;DHT22;44361;51.476;5.700;2024-01-15T05:04:03;1.50;99.90
58582;DHT22;44361;51.476;5.700;2024-01-15T05:06:29;1.50;99.90
58582;DHT22;44361;51.476;5.700;2024-01-15T05:08:55;1.50;99.90
58582;DHT22;44361;51.476;5.700;2024-01-15T05:11:20;1.50;99.90
58582;DHT22;44361;51.476;5.700;2024-01-15T05:13:46;1.50;99.90
58582;DHT22;44361;51.476;5.700;2024-01-15T05:16:11;1.60;99.90
58582;DHT22;44361;51.476;5.700;2024-01-15T05:18:37;1.60;99.90
58582;DHT22;44361;51.476;5.700;2024-01-15T05:21:03;1.50;99.90
58582;DHT22;44361;51.476;5.700;2024-01-15T05:23:31;1.50;99.90
58582;DHT22;44361;51.476;5.700;2024-01-15T05:25:56;1.40;99.90
58582;DHT22;44361;51.476;5.700;2024-01-15T05:28:22;1.30;99.90
58582;DHT22;44361;51.476;5.700;2024-01-15T05:30:48;1.30;99.90
58582;DHT22;44361;51.476;5.700;2024-01-15T05:33:16;1.40;99.90
58582;DHT22;44361;51.476;5.700;2024-01-15T05:35:41;1.40;99.90
58582;DHT22;44361;51.476;5.700;2024-01-15T05:38:07;1.30;99.90
58582;DHT22;44361;51.476;5.700;2024-01-15T05:40:33;1.30;99.90
58582;DHT22;44361;51.476;5.700;2024-01-15T05:42:58;1.30;99.90
58582;DHT22;44361;51.476;5.700;2024-01-15T05:45:26;1.30;99.90
58582;DHT22;44361;51.476;5.700;2024-01-15T05:47:52;1.30;99.90
58582;DHT22;44361;51.476;5.700;2024-01-15T05:50:17;1.30;99.90
58582;DHT22;44361;51.476;5.700;2024-01-15T05:52:43;1.30;99.90
58582;DHT22;44361;51.476;5.700;2024-01-15T05:55:09;1.30;99.90
58582;DHT22;44361;51.476;5.700;2024-01-15T05:57:35;1.30;99.90
58582;DHT22;44361;51.476;5.700;2024-01-15T06:00:00;1.20;99.90
58582;DHT22;44361;51.476;5.700;2024-01-15T06:02:26;1.20;99.90
58582;DHT22;44361;51.476;5.700;2024-01-15T06:04:52;1.20;99.90
58582;DHT22;44361;51.476;5.700;2024-01-15T06:07:17;1.20;99.90
58582;DHT22;44361;51.476;5.700;2024-01-15T06:09:43;1.20;99.90
58582;DHT22;44361;51.476;5.700;2024-01-15T06:12:08;1.20;99.90
58582;DHT22;44361;51.476;5.700;2024-01-15T06:14:34;1.20;99.90
58582;DHT22;44361;51.476;5.700;2024-01-15T06:16:59;1.20;99.90
58582;DHT22;44361;51.476;5.700;2024-01-15T06:19:25;1.10;99.90
58582;DHT22;44361;51.476;5.700;2024-01-15T06:21:50;1.20;99.90
58582;DHT22;44361;51.476;5.700;2024-01-15T06:24:16;1.20;99.90
58582;DHT22;44361;51.476;5.700;2024-01-15T06:26:43;1.20;99.90
58582;DHT22;44361;51.476;5.700;2024-01-15T06:29:08;1.20;99.90
58582;DHT22;44361;51.476;5.700;2024-01-15T06:31:34;1.20;99.90
58582;DHT22;44361;51.476;5.700;2024-01-15T06:34:00;1.20;99.90
58582;DHT22;44361;51.476;5.700;2024-01-15T06:36:25;1.10;99.90
58582;DHT22;44361;51.476;5.700;2024-01-15T06:38:51;1.10;99.90
58582;DHT22;44361;51.476;5.700;2024-01-15T06:41:16;1.10;99.90
58582;DHT22;44361;51.476;5.700;2024-01-15T06:43:42;1.10;99.90
58582;DHT22;44361;51.476;5.700;2024-01-15T06:46:07;1.10;99.90
58582;DHT22;44361;51.476;5.700;2024-01-15T06:48:33;1.20;99.90
58582;DHT22;44361;51.476;5.700;2024-01-15T06:50:58;1.20;99.90
58582;DHT22;44361;51.476;5.700;2024-01-15T06:53:24;1.30;99.90
58582;DHT22;44361;51.476;5.700;2024-01-15T06:55:50;1.30;99.90
58582;DHT22;44361;51.476;5.700;2024-01-15T06:58:16;1.30;99.90
58582;DHT22;44361;51.476;5.700;2024-01-15T07:00:42;1.40;99.90
58582;DHT22;44361;51.476;5.700;2024-01-15T07:03:07;1.40;99.90
58582;DHT22;44361;51.476;5.700;2024-01-15T07:05:33;1.40;99.90
58582;DHT22;44361;51.476;5.700;2024-01-15T07:07:58;1.40;99.90
58582;DHT22;44361;51.476;5.700;2024-01-15T07:10:24;1.40;99.90
58582;DHT22;44361;51.476;5.700;2024-01-15T07:12:51;1.40;99.90
58582;DHT22;44361;51.476;5.700;2024-01-15T07:15:17;1.30;99.90
58582;DHT22;44361;51.476;5.700;2024-01-15T07:17:42;1.30;99.90
58582;DHT22;44361;51.476;5.700;2024-01-15T07:20:09;1.30;99.90
58582;DHT22;44361;51.476;5.700;2024-01-15T07:22:38;1.20;99.90
58582;DHT22;44361;51.476;5.700;2024-01-15T07:25:04;1.20;99.90
58582;DHT22;44361;51.476;5.700;2024-01-15T07:27:31;1.30;99.90
58582;DHT22;44361;51.476;5.700;2024-01-15T07:29:57;1.20;99.90
58582;DHT22;44361;51.476;5.700;2024-01-15T07:32:22;1.20;99.90
58582;DHT22;44361;51.476;5.700;2024-01-15T07:34:48;1.20;99.90
58582;DHT22;44361;51.476;5.700;2024-01-15T07:37:14;1.20;99.90
58582;DHT22;44361;51.476;5.700;2024-01-15T07:39:40;1.10;99.90
58582;DHT22;44361;51.476;5.700;2024-01-15T07:42:05;1.10;99.90
58582;DHT22;44361;51.476;5.700;2024-01-15T07:44:31;1.10;99.90
58582;DHT22;44361;51.476;5.700;2024-01-15T07:46:57;1.00;99.90
58582;DHT22;44361;51.476;5.700;2024-01-15T07:49:22;1.00;99.90
58582;DHT22;44361;51.476;5.700;2024-01-15T07:51:49;1.00;99.90
58582;DHT22;44361;51.476;5.700;2024-01-15T07:54:14;1.00;99.90
58582;DHT22;44361;51.476;5.700;2024-01-15T07:56:59;1.00;99.90
58582;DHT22;44361;51.476;5.700;2024-01-15T07:59:25;1.00;99.90
58582;DHT22;44361;51.476;5.700;2024-01-15T08:01:51;1.00;99.90
58582;DHT22;44361;51.476;5.700;2024-01-15T08:04:17;1.00;99.90
58582;DHT22;44361;51.476;5.700;2024-01-15T08:06:43;1.00;99.90
58582;DHT22;44361;51.476;5.700;2024-01-15T08:09:08;0.90;99.90
58582;DHT22;44361;51.476;5.700;2024-01-15T08:11:34;1.00;99.90
58582;DHT22;44361;51.476;5.700;2024-01-15T08:14:00;1.00;99.90
58582;DHT22;44361;51.476;5.700;2024-01-15T08:16:26;1.10;99.90
58582;DHT22;44361;51.476;5.700;2024-01-15T08:18:53;1.20;99.90
58582;DHT22;44361;51.476;5.700;2024-01-15T08:21:18;1.20;99.90
58582;DHT22;44361;51.476;5.700;2024-01-15T08:23:44;1.20;99.90
58582;DHT22;44361;51.476;5.700;2024-01-15T08:26:10;1.20;99.90
58582;DHT22;44361;51.476;5.700;2024-01-15T08:28:36;1.20;99.90
58582;DHT22;44361;51.476;5.700;2024-01-15T08:31:01;1.30;99.90
58582;DHT22;44361;51.476;5.700;2024-01-15T08:33:28;1.30;99.90
58582;DHT22;44361;51.476;5.700;2024-01-15T08:35:54;1.30;99.90
58582;DHT22;44361;51.476;5.700;2024-01-15T08:38:19;1.30;99.90
58582;DHT22;44361;51.476;5.700;2024-01-15T08:40:45;1.20;99.90
58582;DHT22;44361;51.476;5.700;2024-01-15T08:43:10;1.10;99.90
58582;DHT22;44361;51.476;5.700;2024-01-15T08:45:36;1.00;99.90
58582;DHT22;44361;51.476;5.700;2024-01-15T08:48:02;1.00;99.90
58582;DHT22;44361;51.476;5.700;2024-01-15T08:50:27;1.00;99.90
58582;DHT22;44361;51.476;5.700;2024-01-15T08:52:53;1.00;99.90
58582;DHT22;44361;51.476;5.700;2024-01-15T08:55:18;1.00;99.90
58582;DHT22;44361;51.476;5.700;2024-01-15T08:57:44;1.00;99.90
58582;DHT22;44361;51.476;5.700;2024-01-15T09:00:10;1.10;99.90
58582;DHT22;44361;51.476;5.700;2024-01-15T09:02:36;1.20;99.90
58582;DHT22;44361;51.476;5.700;2024-01-15T09:05:02;1.20;99.90
58582;DHT22;44361;51.476;5.700;2024-01-15T09:07:30;1.20;99.90
58582;DHT22;44361;51.476;5.700;2024-01-15T09:09:55;1.20;99.90
58582;DHT22;44361;51.476;5.700;2024-01-15T09:12:21;1.30;99.90
58582;DHT22;44361;51.476;5.700;2024-01-15T09:14:47;1.30;99.90
58582;DHT22;44361;51.476;5.700;2024-01-15T09:17:13;1.30;99.90
58582;DHT22;44361;51.476;5.700;2024-01-15T09:19:38;1.30;99.90
58582;DHT22;44361;51.476;5.700;2024-01-15T09:22:05;1.30;99.90
58582;DHT22;44361;51.476;5.700;2024-01-15T09:24:31;1.40;99.90
58582;DHT22;44361;51.476;5.700;2024-01-15T09:26:56;1.50;99.90
58582;DHT22;44361;51.476;5.700;2024-01-15T09:29:22;1.40;99.90
58582;DHT22;44361;51.476;5.700;2024-01-15T09:31:51;1.50;99.90
58582;DHT22;44361;51.476;5.700;2024-01-15T09:34:17;1.50;99.90
58582;DHT22;44361;51.476;5.700;2024-01-15T09:36:43;1.50;99.90
58582;DHT22;44361;51.476;5.700;2024-01-15T09:39:09;1.50;99.90
58582;DHT22;44361;51.476;5.700;2024-01-15T09:41:37;1.60;99.90
58582;DHT22;44361;51.476;5.700;2024-01-15T09:44:03;1.70;99.90
58582;DHT22;44361;51.476;5.700;2024-01-15T09:46:33;1.70;99.90
58582;DHT22;44361;51.476;5.700;2024-01-15T09:49:00;1.70;99.90
58582;DHT22;44361;51.476;5.700;2024-01-15T09:51:28;1.70;99.90
58582;DHT22;44361;51.476;5.700;2024-01-15T09:53:57;1.80;99.90
58582;DHT22;44361;51.476;5.700;2024-01-15T09:56:23;1.70;99.90
58582;DHT22;44361;51.476;5.700;2024-01-15T09:58:50;1.70;99.90
58582;DHT22;44361;51.476;5.700;2024-01-15T10:01:19;1.70;99.90
58582;DHT22;44361;51.476;5.700;2024-01-15T10:03:46;1.70;99.90
58582;DHT22;44361;51.476;5.700;2024-01-15T10:06:15;1.70;99.90
58582;DHT22;44361;51.476;5.700;2024-01-15T10:08:46;1.60;99.90
58582;DHT22;44361;51.476;5.700;2024-01-15T10:11:12;1.70;99.90
58582;DHT22;44361;51.476;5.700;2024-01-15T10:13:39;1.80;99.90
58582;DHT22;44361;51.476;5.700;2024-01-15T10:16:05;1.70;99.90
58582;DHT22;44361;51.476;5.700;2024-01-15T10:18:30;1.70;99.90
58582;DHT22;44361;51.476;5.700;2024-01-15T10:20:56;1.70;99.90
58582;DHT22;44361;51.476;5.700;2024-01-15T10:23:24;1.70;99.90
58582;DHT22;44361;51.476;5.700;2024-01-15T10:25:49;1.70;99.90
58582;DHT22;44361;51.476;5.700;2024-01-15T10:28:17;1.70;99.90
58582;DHT22;44361;51.476;5.700;2024-01-15T10:30:44;1.80;99.90
58582;DHT22;44361;51.476;5.700;2024-01-15T10:33:10;1.90;99.90
58582;DHT22;44361;51.476;5.700;2024-01-15T10:35:37;1.90;99.90
58582;DHT22;44361;51.476;5.700;2024-01-15T10:38:03;2.10;99.90
58582;DHT22;44361;51.476;5.700;2024-01-15T10:40:31;2.20;99.90
58582;DHT22;44361;51.476;5.700;2024-01-15T10:42:57;2.30;99.90
58582;DHT22;44361;51.476;5.700;2024-01-15T10:45:23;2.60;99.90
58582;DHT22;44361;51.476;5.700;2024-01-15T10:47:50;2.60;99.90
58582;DHT22;44361;51.476;5.700;2024-01-15T10:50:16;2.70;99.90
58582;DHT22;44361;51.476;5.700;2024-01-15T10:52:42;2.80;99.90
58582;DHT22;44361;51.476;5.700;2024-01-15T10:55:09;2.80;99.90
58582;DHT22;44361;51.476;5.700;2024-01-15T10:57:36;2.80;99.90
58582;DHT22;44361;51.476;5.700;2024-01-15T11:00:03;2.80;99.90
58582;DHT22;44361;51.476;5.700;2024-01-15T11:02:35;2.80;99.90
58582;DHT22;44361;51.476;5.700;2024-01-15T11:05:01;2.90;99.90
58582;DHT22;44361;51.476;5.700;2024-01-15T11:07:27;3.00;99.90
58582;DHT22;44361;51.476;5.700;2024-01-15T11:09:55;2.90;99.90
58582;DHT22;44361;51.476;5.700;2024-01-15T11:12:20;2.70;99.90
58582;DHT22;44361;51.476;5.700;2024-01-15T11:14:48;2.70;99.90
58582;DHT22;44361;51.476;5.700;2024-01-15T11:17:14;2.60;99.90
58582;DHT22;44361;51.476;5.700;2024-01-15T11:19:44;2.50;99.90
58582;DHT22;44361;51.476;5.700;2024-01-15T11:24:55;2.60;99.90
58582;DHT22;44361;51.476;5.700;2024-01-15T11:27:40;2.60;99.90
58582;DHT22;44361;51.476;5.700;2024-01-15T11:30:12;2.60;99.90
58582;DHT22;44361;51.476;5.700;2024-01-15T11:32:38;2.80;99.90
58582;DHT22;44361;51.476;5.700;2024-01-15T11:35:07;2.90;99.90
58582;DHT22;44361;51.476;5.700;2024-01-15T11:42:58;3.40;99.90
58582;DHT22;44361;51.476;5.700;2024-01-15T11:45:24;3.50;99.90
58582;DHT22;44361;51.476;5.700;2024-01-15T11:48:14;3.40;99.90
58582;DHT22;44361;51.476;5.700;2024-01-15T11:55:58;2.80;99.90
58582;DHT22;44361;51.476;5.700;2024-01-15T11:58:25;2.70;99.90
58582;DHT22;44361;51.476;5.700;2024-01-15T12:00:51;2.60;99.90
58582;DHT22;44361;51.476;5.700;2024-01-15T12:03:23;2.40;99.90
58582;DHT22;44361;51.476;5.700;2024-01-15T12:05:49;2.40;99.90
58582;DHT22;44361;51.476;5.700;2024-01-15T12:08:14;2.40;99.90
58582;DHT22;44361;51.476;5.700;2024-01-15T12:10:45;2.50;99.90
58582;DHT22;44361;51.476;5.700;2024-01-15T12:15:38;2.90;99.90
58582;DHT22;44361;51.476;5.700;2024-01-15T12:18:09;2.90;99.90
58582;DHT22;44361;51.476;5.700;2024-01-15T12:20:35;2.90;99.90
58582;DHT22;44361;51.476;5.700;2024-01-15T12:23:01;3.00;99.90
58582;DHT22;44361;51.476;5.700;2024-01-15T12:25:29;2.90;99.90
58582;DHT22;44361;51.476;5.700;2024-01-15T12:27:55;2.80;99.90
58582;DHT22;44361;51.476;5.700;2024-01-15T12:30:21;2.50;99.90
58582;DHT22;44361;51.476;5.700;2024-01-15T12:32:47;2.30;99.90
58582;DHT22;44361;51.476;5.700;2024-01-15T12:35:13;2.10;99.90
58582;DHT22;44361;51.476;5.700;2024-01-15T12:37:40;2.00;99.90
58582;DHT22;44361;51.476;5.700;2024-01-15T12:40:10;1.90;99.90
58582;DHT22;44361;51.476;5.700;2024-01-15T12:42:36;1.90;99.90
58582;DHT22;44361;51.476;5.700;2024-01-15T12:45:03;1.90;99.90
58582;DHT22;44361;51.476;5.700;2024-01-15T12:47:30;2.00;99.90
58582;DHT22;44361;51.476;5.700;2024-01-15T12:49:57;1.90;99.90
58582;DHT22;44361;51.476;5.700;2024-01-15T12:52:27;1.80;99.90
58582;DHT22;44361;51.476;5.700;2024-01-15T12:54:52;1.70;99.90
58582;DHT22;44361;51.476;5.700;2024-01-15T12:57:18;1.60;99.90
58582;DHT22;44361;51.476;5.700;2024-01-15T12:59:44;1.50;99.90
58582;DHT22;44361;51.476;5.700;2024-01-15T13:02:13;1.40;99.90
58582;DHT22;44361;51.476;5.700;2024-01-15T13:04:40;1.40;99.90
58582;DHT22;44361;51.476;5.700;2024-01-15T13:07:06;1.40;99.90
58582;DHT22;44361;51.476;5.700;2024-01-15T13:09:33;1.40;99.90
58582;DHT22;44361;51.476;5.700;2024-01-15T13:11:59;1.40;99.90
58582;DHT22;44361;51.476;5.700;2024-01-15T13:14:24;1.30;99.90
58582;DHT22;44361;51.476;5.700;2024-01-15T13:16:50;1.20;99.90
58582;DHT22;44361;51.476;5.700;2024-01-15T13:19:16;1.10;99.90
58582;DHT22;44361;51.476;5.700;2024-01-15T13:21:42;1.10;99.90
58582;DHT22;44361;51.476;5.700;2024-01-15T13:24:08;1.10;99.90
58582;DHT22;44361;51.476;5.700;2024-01-15T13:26:34;1.10;99.90
58582;DHT22;44361;51.476;5.700;2024-01-15T13:29:01;1.20;99.90
58582;DHT22;44361;51.476;5.700;2024-01-15T13:31:27;1.20;99.90
58582;DHT22;44361;51.476;5.700;2024-01-15T13:33:53;1.20;99.90
58582;DHT22;44361;51.476;5.700;2024-01-15T13:36:20;1.20;99.90
58582;DHT22;44361;51.476;5.700;2024-01-15T13:38:46;1.30;99.90
58582;DHT22;44361;51.476;5.700;2024-01-15T13:41:12;1.30;99.90
58582;DHT22;44361;51.476;5.700;2024-01-15T13:43:38;1.30;99.90
58582;DHT22;44361;51.476;5.700;2024-01-15T13:46:03;1.30;99.90
58582;DHT22;44361;51.476;5.700;2024-01-15T13:48:30;1.30;99.90
58582;DHT22;44361;51.476;5.700;2024-01-15T13:50:57;1.30;99.90
58582;DHT22;44361;51.476;5.700;2024-01-15T13:53:23;1.30;99.90
58582;DHT22;44361;51.476;5.700;2024-01-15T13:55:48;1.40;99.90
58582;DHT22;44361;51.476;5.700;2024-01-15T13:58:14;1.50;99.90
58582;DHT22;44361;51.476;5.700;2024-01-15T14:00:40;1.60;99.90
58582;DHT22;44361;51.476;5.700;2024-01-15T14:03:05;1.60;99.90
58582;DHT22;44361;51.476;5.700;2024-01-15T14:05:31;1.50;99.90
58582;DHT22;44361;51.476;5.700;2024-01-15T14:07:57;1.50;99.90
58582;DHT22;44361;51.476;5.700;2024-01-15T14:10:22;1.60;99.90
58582;DHT22;44361;51.476;5.700;2024-01-15T14:12:48;1.70;99.90
58582;DHT22;44361;51.476;5.700;2024-01-15T14:15:14;1.60;99.90
58582;DHT22;44361;51.476;5.700;2024-01-15T14:17:39;1.60;99.90
58582;DHT22;44361;51.476;5.700;2024-01-15T14:20:05;1.50;99.90
58582;DHT22;44361;51.476;5.700;2024-01-15T14:22:31;1.60;99.90
58582;DHT22;44361;51.476;5.700;2024-01-15T14:24:57;1.70;99.90
58582;DHT22;44361;51.476;5.700;2024-01-15T14:27:22;1.80;99.90
58582;DHT22;44361;51.476;5.700;2024-01-15T14:29:48;2.00;99.90
58582;DHT22;44361;51.476;5.700;2024-01-15T14:32:13;2.00;99.90
58582;DHT22;44361;51.476;5.700;2024-01-15T14:34:39;2.20;99.90
58582;DHT22;44361;51.476;5.700;2024-01-15T14:37:05;2.10;99.90
58582;DHT22;44361;51.476;5.700;2024-01-15T14:39:31;2.20;99.90
58582;DHT22;44361;51.476;5.700;2024-01-15T14:42:00;2.20;99.90
58582;DHT22;44361;51.476;5.700;2024-01-15T14:44:26;2.30;99.90
58582;DHT22;44361;51.476;5.700;2024-01-15T14:46:51;2.20;99.90
58582;DHT22;44361;51.476;5.700;2024-01-15T14:49:17;2.10;99.90
58582;DHT22;44361;51.476;5.700;2024-01-15T14:51:43;2.00;99.90
58582;DHT22;44361;51.476;5.700;2024-01-15T14:54:10;1.90;99.90
58582;DHT22;44361;51.476;5.700;2024-01-15T14:56:35;1.80;99.90
58582;DHT22;44361;51.476;5.700;2024-01-15T14:59:01;1.80;99.90
58582;DHT22;44361;51.476;5.700;2024-01-15T15:01:27;1.80;99.90
58582;DHT22;44361;51.476;5.700;2024-01-15T15:03:52;1.80;99.90
58582;DHT22;44361;51.476;5.700;2024-01-15T15:06:18;1.90;99.90
58582;DHT22;44361;51.476;5.700;2024-01-15T15:08:43;1.90;99.90
58582;DHT22;44361;51.476;5.700;2024-01-15T15:11:09;2.00;99.90
58582;DHT22;44361;51.476;5.700;2024-01-15T15:13:36;2.00;99.90
58582;DHT22;44361;51.476;5.700;2024-01-15T15:16:01;2.00;99.90
58582;DHT22;44361;51.476;5.700;2024-01-15T15:18:27;1.90;99.90
58582;DHT22;44361;51.476;5.700;2024-01-15T15:20:55;1.80;99.90
58582;DHT22;44361;51.476;5.700;2024-01-15T15:23:21;1.70;99.90
58582;DHT22;44361;51.476;5.700;2024-01-15T15:25:46;1.70;99.90
58582;DHT22;44361;51.476;5.700;2024-01-15T15:28:12;1.70;99.90
58582;DHT22;44361;51.476;5.700;2024-01-15T15:30:39;1.70;99.90
58582;DHT22;44361;51.476;5.700;2024-01-15T15:33:05;1.70;99.90
58582;DHT22;44361;51.476;5.700;2024-01-15T15:35:31;1.60;99.90
58582;DHT22;44361;51.476;5.700;2024-01-15T15:37:57;1.50;99.90
58582;DHT22;44361;51.476;5.700;2024-01-15T15:40:25;1.50;99.90
58582;DHT22;44361;51.476;5.700;2024-01-15T15:42:51;1.40;99.90
58582;DHT22;44361;51.476;5.700;2024-01-15T15:45:16;1.40;99.90
58582;DHT22;44361;51.476;5.700;2024-01-15T15:47:42;1.30;99.90
58582;DHT22;44361;51.476;5.700;2024-01-15T15:50:08;1.30;99.90
58582;DHT22;44361;51.476;5.700;2024-01-15T15:52:33;1.20;99.90